sensor_id;sensor_type;location;lat;lon;timestamp;temperature;humidity
56428;DHT22;42331;53.578;9.760;2022-08-18T06:43:16;19.60;99.90
56428;DHT22;42331;53.578;9.760;2022-08-18T06:46:19;19.60;99.90
56428;DHT22;42331;53.578;9.760;2022-08-18T06:52:37;19.50;99.90
56428;DHT22;42331;53.578;9.760;2022-08-18T06:58:31;19.50;99.90
56428;DHT22;42331;53.578;9.760;2022-08-18T07:01:31;19.40;99.90
56428;DHT22;42331;53.578;9.760;2022-08-18T07:04:08;19.40;99.90
56428;DHT22;42331;53.578;9.760;2022-08-18T07:06:42;19.50;99.90
56428;DHT22;42331;53.578;9.760;2022-08-18T07:09:24;19.50;99.90
56428;DHT22;42331;53.578;9.760;2022-08-18T07:12:09;19.50;99.90
56428;DHT22;42331;53.578;9.760;2022-08-18T07:14:48;19.50;99.90
56428;DHT22;42331;53.578;9.760;2022-08-18T07:17:36;19.50;99.90
56428;DHT22;42331;53.578;9.760;2022-08-18T07:20:25;19.50;99.90
56428;DHT22;42331;53.578;9.760;2022-08-18T07:23:02;19.50;99.90
56428;DHT22;42331;53.578;9.760;2022-08-18T07:25:43;19.40;99.90
56428;DHT22;42331;53.578;9.760;2022-08-18T07:29:00;19.50;99.90
56428;DHT22;42331;53.578;9.760;2022-08-18T07:31:51;19.50;99.90
56428;DHT22;42331;53.578;9.760;2022-08-18T07:34:40;19.50;99.90
56428;DHT22;42331;53.578;9.760;2022-08-18T07:37:22;19.50;99.90
56428;DHT22;42331;53.578;9.760;2022-08-18T07:43:02;19.50;99.90
56428;DHT22;42331;53.578;9.760;2022-08-18T07:48:15;19.50;99.90
56428;DHT22;42331;53.578;9.760;2022-08-18T07:53:59;19.50;99.90
56428;DHT22;42331;53.578;9.760;2022-08-18T07:57:02;19.50;99.90
56428;DHT22;42331;53.578;9.760;2022-08-18T08:00:33;19.60;99.90
56428;DHT22;42331;53.578;9.760;2022-08-18T08:06:38;19.80;99.90
56428;DHT22;42331;53.578;9.760;2022-08-18T08:21:32;20.30;99.90
56428;DHT22;42331;53.578;9.760;2022-08-18T08:24:15;20.30;99.90
56428;DHT22;42331;53.578;9.760;2022-08-18T08:30:12;20.40;99.90
56428;DHT22;42331;53.578;9.760;2022-08-18T08:38:30;20.80;99.90
56428;DHT22;42331;53.578;9.760;2022-08-18T08:41:39;21.20;99.90
56428;DHT22;42331;53.578;9.760;2022-08-18T08:53:48;21.30;99.90
56428;DHT22;42331;53.578;9.760;2022-08-18T08:56:38;21.20;99.90
56428;DHT22;42331;53.578;9.760;2022-08-18T08:59:23;21.20;99.90
56428;DHT22;42331;53.578;9.760;2022-08-18T09:02:46;21.20;99.90
56428;DHT22;42331;53.578;9.760;2022-08-18T09:18:45;21.90;99.90
56428;DHT22;42331;53.578;9.760;2022-08-18T09:21:34;22.20;99.90
56428;DHT22;42331;53.578;9.760;2022-08-18T09:25:28;22.30;99.90
56428;DHT22;42331;53.578;9.760;2022-08-18T09:29:12;22.20;99.90
56428;DHT22;42331;53.578;9.760;2022-08-18T09:31:19;22.10;99.90
56428;DHT22;42331;53.578;9.760;2022-08-18T09:39:33;21.90;99.90
56428;DHT22;42331;53.578;9.760;2022-08-18T09:45:58;22.30;99.90
56428;DHT22;42331;53.578;9.760;2022-08-18T09:48:54;22.70;99.90
56428;DHT22;42331;53.578;9.760;2022-08-18T09:51:43;23.10;99.90
56428;DHT22;42331;53.578;9.760;2022-08-18T09:54:20;23.30;99.90
56428;DHT22;42331;53.578;9.760;2022-08-18T10:02:06;22.80;99.90
56428;DHT22;42331;53.578;9.760;2022-08-18T10:11:21;22.50;99.90
56428;DHT22;42331;53.578;9.760;2022-08-18T10:17:38;22.50;99.90
56428;DHT22;42331;53.578;9.760;2022-08-18T10:31:05;23.40;99.90
56428;DHT22;42331;53.578;9.760;2022-08-18T10:34:02;23.40;99.90
56428;DHT22;42331;53.578;9.760;2022-08-18T10:37:01;23.20;99.90
56428;DHT22;42331;53.578;9.760;2022-08-18T10:44:47;23.10;99.90
56428;DHT22;42331;53.578;9.760;2022-08-18T10:47:26;23.10;99.90
56428;DHT22;42331;53.578;9.760;2022-08-18T10:56:52;24.50;99.90
56428;DHT22;42331;53.578;9.760;2022-08-18T11:06:50;24.20;99.90
56428;DHT22;42331;53.578;9.760;2022-08-18T11:10:23;24.70;99.90
56428;DHT22;42331;53.578;9.760;2022-08-18T11:16:56;24.30;99.90
56428;DHT22;42331;53.578;9.760;2022-08-18T11:19:41;25.20;99.90
56428;DHT22;42331;53.578;9.760;2022-08-18T11:22:56;25.90;99.90
56428;DHT22;42331;53.578;9.760;2022-08-18T11:26:15;26.00;99.90
56428;DHT22;42331;53.578;9.760;2022-08-18T11:28:46;25.20;99.90
56428;DHT22;42331;53.578;9.760;2022-08-18T11:31:17;24.60;99.90
56428;DHT22;42331;53.578;9.760;2022-08-18T11:33:47;24.30;99.90
56428;DHT22;42331;53.578;9.760;2022-08-18T11:36:28;24.30;99.90
56428;DHT22;42331;53.578;9.760;2022-08-18T11:39:00;24.40;99.90
56428;DHT22;42331;53.578;9.760;2022-08-18T11:41:39;24.40;99.90
56428;DHT22;42331;53.578;9.760;2022-08-18T11:45:06;24.40;99.90
56428;DHT22;42331;53.578;9.760;2022-08-18T11:51:09;24.40;99.90
56428;DHT22;42331;53.578;9.760;2022-08-18T11:54:01;24.30;99.90
56428;DHT22;42331;53.578;9.760;2022-08-18T11:56:37;24.30;99.90
56428;DHT22;42331;53.578;9.760;2022-08-18T11:59:35;24.10;99.90
56428;DHT22;42331;53.578;9.760;2022-08-18T12:02:22;23.90;99.90
56428;DHT22;42331;53.578;9.760;2022-08-18T12:05:25;24.00;99.90
56428;DHT22;42331;53.578;9.760;2022-08-18T12:08:35;23.90;99.90
56428;DHT22;42331;53.578;9.760;2022-08-18T12:11:17;23.90;99.90
56428;DHT22;42331;53.578;9.760;2022-08-18T12:14:20;23.90;99.90
56428;DHT22;42331;53.578;9.760;2022-08-18T12:17:06;24.30;99.90
56428;DHT22;42331;53.578;9.760;2022-08-18T12:20:00;24.30;99.90
56428;DHT22;42331;53.578;9.760;2022-08-18T12:22:40;24.20;99.90
56428;DHT22;42331;53.578;9.760;2022-08-18T12:25:30;24.00;99.90
56428;DHT22;42331;53.578;9.760;2022-08-18T12:28:01;24.40;99.90
56428;DHT22;42331;53.578;9.760;2022-08-18T12:30:32;24.40;99.90
56428;DHT22;42331;53.578;9.760;2022-08-18T12:33:02;24.40;99.90
56428;DHT22;42331;53.578;9.760;2022-08-18T12:35:33;24.60;99.90
56428;DHT22;42331;53.578;9.760;2022-08-18T12:38:04;24.80;99.90
56428;DHT22;42331;53.578;9.760;2022-08-18T12:40:35;25.00;99.90
56428;DHT22;42331;53.578;9.760;2022-08-18T12:43:06;25.00;99.90
56428;DHT22;42331;53.578;9.760;2022-08-18T12:45:37;25.00;99.90
56428;DHT22;42331;53.578;9.760;2022-08-18T12:48:08;25.00;99.90
56428;DHT22;42331;53.578;9.760;2022-08-18T12:50:39;25.00;99.90
56428;DHT22;42331;53.578;9.760;2022-08-18T12:53:11;24.80;99.90
56428;DHT22;42331;53.578;9.760;2022-08-18T12:55:43;24.60;99.90
56428;DHT22;42331;53.578;9.760;2022-08-18T12:58:14;24.50;99.90
56428;DHT22;42331;53.578;9.760;2022-08-18T13:00:44;24.40;99.90
56428;DHT22;42331;53.578;9.760;2022-08-18T13:03:16;24.30;99.90
56428;DHT22;42331;53.578;9.760;2022-08-18T13:05:48;24.50;99.90
56428;DHT22;42331;53.578;9.760;2022-08-18T13:08:20;24.40;99.90
56428;DHT22;42331;53.578;9.760;2022-08-18T13:10:51;24.40;99.90
56428;DHT22;42331;53.578;9.760;2022-08-18T13:13:31;24.40;99.90
56428;DHT22;42331;53.578;9.760;2022-08-18T13:16:02;24.60;99.90
56428;DHT22;42331;53.578;9.760;2022-08-18T13:18:34;24.70;99.90
56428;DHT22;42331;53.578;9.760;2022-08-18T13:21:05;24.70;99.90
56428;DHT22;42331;53.578;9.760;2022-08-18T13:23:37;24.80;99.90
56428;DHT22;42331;53.578;9.760;2022-08-18T13:26:14;24.80;99.90
56428;DHT22;42331;53.578;9.760;2022-08-18T13:28:46;24.80;99.90
56428;DHT22;42331;53.578;9.760;2022-08-18T13:31:17;24.80;99.90
56428;DHT22;42331;53.578;9.760;2022-08-18T13:33:48;24.90;99.90
56428;DHT22;42331;53.578;9.760;2022-08-18T13:36:19;24.60;99.90
56428;DHT22;42331;53.578;9.760;2022-08-18T13:38:51;24.60;99.90
56428;DHT22;42331;53.578;9.760;2022-08-18T13:41:31;24.50;99.90
56428;DHT22;42331;53.578;9.760;2022-08-18T13:44:03;24.40;99.90
56428;DHT22;42331;53.578;9.760;2022-08-18T13:46:33;24.20;99.90
56428;DHT22;42331;53.578;9.760;2022-08-18T13:49:07;24.30;99.90
56428;DHT22;42331;53.578;9.760;2022-08-18T13:51:38;24.40;99.90
56428;DHT22;42331;53.578;9.760;2022-08-18T13:54:15;24.40;99.90
56428;DHT22;42331;53.578;9.760;2022-08-18T13:56:47;24.40;99.90
56428;DHT22;42331;53.578;9.760;2022-08-18T13:59:19;24.30;99.90
56428;DHT22;42331;53.578;9.760;2022-08-18T14:01:51;24.40;99.90
56428;DHT22;42331;53.578;9.760;2022-08-18T14:04:22;24.40;99.90
56428;DHT22;42331;53.578;9.760;2022-08-18T14:06:54;24.50;99.90
56428;DHT22;42331;53.578;9.760;2022-08-18T14:09:25;24.50;99.90
56428;DHT22;42331;53.578;9.760;2022-08-18T14:11:57;24.40;99.90
56428;DHT22;42331;53.578;9.760;2022-08-18T14:14:28;24.50;99.90
56428;DHT22;42331;53.578;9.760;2022-08-18T14:16:59;24.50;99.90
56428;DHT22;42331;53.578;9.760;2022-08-18T14:19:30;24.40;99.90
56428;DHT22;42331;53.578;9.760;2022-08-18T14:22:19;24.50;99.90
56428;DHT22;42331;53.578;9.760;2022-08-18T14:25:09;24.60;99.90
56428;DHT22;42331;53.578;9.760;2022-08-18T14:27:58;24.60;99.90
56428;DHT22;42331;53.578;9.760;2022-08-18T14:30:30;24.40;99.90
56428;DHT22;42331;53.578;9.760;2022-08-18T14:33:06;24.10;99.90
56428;DHT22;42331;53.578;9.760;2022-08-18T14:35:37;23.90;99.90
56428;DHT22;42331;53.578;9.760;2022-08-18T14:38:08;23.80;99.90
56428;DHT22;42331;53.578;9.760;2022-08-18T14:40:41;23.90;99.90
56428;DHT22;42331;53.578;9.760;2022-08-18T14:43:14;24.00;99.90
56428;DHT22;42331;53.578;9.760;2022-08-18T14:45:46;24.00;99.90
56428;DHT22;42331;53.578;9.760;2022-08-18T14:48:19;24.00;99.90
56428;DHT22;42331;53.578;9.760;2022-08-18T14:50:53;23.80;99.90
56428;DHT22;42331;53.578;9.760;2022-08-18T14:53:28;23.90;99.90
56428;DHT22;42331;53.578;9.760;2022-08-18T14:55:59;23.90;99.90
56428;DHT22;42331;53.578;9.760;2022-08-18T14:58:31;24.20;99.90
56428;DHT22;42331;53.578;9.760;2022-08-18T15:01:06;24.30;99.90
56428;DHT22;42331;53.578;9.760;2022-08-18T15:03:39;24.30;99.90
56428;DHT22;42331;53.578;9.760;2022-08-18T15:06:10;24.30;99.90
56428;DHT22;42331;53.578;9.760;2022-08-18T15:08:40;24.20;99.90
56428;DHT22;42331;53.578;9.760;2022-08-18T15:11:11;24.10;99.90
56428;DHT22;42331;53.578;9.760;2022-08-18T15:13:43;24.10;99.90
56428;DHT22;42331;53.578;9.760;2022-08-18T15:16:15;24.10;99.90
56428;DHT22;42331;53.578;9.760;2022-08-18T15:18:46;24.20;99.90
56428;DHT22;42331;53.578;9.760;2022-08-18T15:21:17;24.10;99.90
56428;DHT22;42331;53.578;9.760;2022-08-18T15:24:07;24.00;99.90
56428;DHT22;42331;53.578;9.760;2022-08-18T15:26:57;23.80;99.90
56428;DHT22;42331;53.578;9.760;2022-08-18T15:29:28;23.70;99.90
56428;DHT22;42331;53.578;9.760;2022-08-18T15:31:59;23.70;99.90
56428;DHT22;42331;53.578;9.760;2022-08-18T15:34:32;23.70;99.90
56428;DHT22;42331;53.578;9.760;2022-08-18T15:37:03;23.60;99.90
56428;DHT22;42331;53.578;9.760;2022-08-18T15:39:36;23.50;99.90
56428;DHT22;42331;53.578;9.760;2022-08-18T15:42:09;23.40;99.90
56428;DHT22;42331;53.578;9.760;2022-08-18T15:44:40;23.40;99.90
56428;DHT22;42331;53.578;9.760;2022-08-18T15:47:12;23.40;99.90
56428;DHT22;42331;53.578;9.760;2022-08-18T15:49:43;23.40;99.90
56428;DHT22;42331;53.578;9.760;2022-08-18T15:52:14;23.30;99.90
56428;DHT22;42331;53.578;9.760;2022-08-18T15:54:44;23.20;99.90
56428;DHT22;42331;53.578;9.760;2022-08-18T15:57:15;23.20;99.90
56428;DHT22;42331;53.578;9.760;2022-08-18T15:59:46;23.20;99.90
56428;DHT22;42331;53.578;9.760;2022-08-18T16:02:16;23.20;99.90
56428;DHT22;42331;53.578;9.760;2022-08-18T16:04:47;23.20;99.90
56428;DHT22;42331;53.578;9.760;2022-08-18T16:07:18;23.10;99.90
56428;DHT22;42331;53.578;9.760;2022-08-18T16:09:50;23.10;99.90
56428;DHT22;42331;53.578;9.760;2022-08-18T16:12:20;23.10;99.90
56428;DHT22;42331;53.578;9.760;2022-08-18T16:14:51;23.20;99.90
56428;DHT22;42331;53.578;9.760;2022-08-18T16:17:22;23.10;99.90
56428;DHT22;42331;53.578;9.760;2022-08-18T16:19:53;23.20;99.90
56428;DHT22;42331;53.578;9.760;2022-08-18T16:22:24;23.20;99.90
56428;DHT22;42331;53.578;9.760;2022-08-18T16:24:55;23.10;99.90
56428;DHT22;42331;53.578;9.760;2022-08-18T16:27:26;23.10;99.90
56428;DHT22;42331;53.578;9.760;2022-08-18T16:30:01;23.00;99.90
56428;DHT22;42331;53.578;9.760;2022-08-18T16:32:34;23.00;99.90
56428;DHT22;42331;53.578;9.760;2022-08-18T16:35:05;22.90;99.90
56428;DHT22;42331;53.578;9.760;2022-08-18T16:37:36;22.80;99.90
56428;DHT22;42331;53.578;9.760;2022-08-18T16:40:07;22.80;99.90
56428;DHT22;42331;53.578;9.760;2022-08-18T16:42:44;22.80;99.90
56428;DHT22;42331;53.578;9.760;2022-08-18T16:45:15;22.80;99.90
56428;DHT22;42331;53.578;9.760;2022-08-18T16:47:45;22.70;99.90
56428;DHT22;42331;53.578;9.760;2022-08-18T16:50:16;22.60;99.90
56428;DHT22;42331;53.578;9.760;2022-08-18T16:52:47;22.50;99.90
56428;DHT22;42331;53.578;9.760;2022-08-18T16:55:18;22.40;99.90
56428;DHT22;42331;53.578;9.760;2022-08-18T16:57:49;22.30;99.90
56428;DHT22;42331;53.578;9.760;2022-08-18T17:00:38;22.30;99.90
56428;DHT22;42331;53.578;9.760;2022-08-18T17:03:28;22.20;99.90
56428;DHT22;42331;53.578;9.760;2022-08-18T17:06:18;22.10;99.90
56428;DHT22;42331;53.578;9.760;2022-08-18T17:08:49;22.00;99.90
56428;DHT22;42331;53.578;9.760;2022-08-18T17:11:21;22.00;99.90
56428;DHT22;42331;53.578;9.760;2022-08-18T17:13:53;22.00;99.90
56428;DHT22;42331;53.578;9.760;2022-08-18T17:16:26;21.90;99.90
56428;DHT22;42331;53.578;9.760;2022-08-18T17:18:58;21.90;99.90
56428;DHT22;42331;53.578;9.760;2022-08-18T17:21:31;21.90;99.90
56428;DHT22;42331;53.578;9.760;2022-08-18T17:24:05;21.90;99.90
56428;DHT22;42331;53.578;9.760;2022-08-18T17:26:47;21.80;99.90
56428;DHT22;42331;53.578;9.760;2022-08-18T17:29:26;21.70;99.90
56428;DHT22;42331;53.578;9.760;2022-08-18T17:32:10;21.60;99.90
56428;DHT22;42331;53.578;9.760;2022-08-18T17:34:47;21.60;99.90
56428;DHT22;42331;53.578;9.760;2022-08-18T17:37:21;21.50;99.90
56428;DHT22;42331;53.578;9.760;2022-08-18T17:39:55;21.50;99.90
56428;DHT22;42331;53.578;9.760;2022-08-18T17:42:30;21.40;99.90
56428;DHT22;42331;53.578;9.760;2022-08-18T17:45:07;21.40;99.90
56428;DHT22;42331;53.578;9.760;2022-08-18T17:48:01;21.40;99.90
56428;DHT22;42331;53.578;9.760;2022-08-18T17:50:46;21.40;99.90
56428;DHT22;42331;53.578;9.760;2022-08-18T17:53:36;21.30;99.90
56428;DHT22;42331;53.578;9.760;2022-08-18T17:56:20;21.30;99.90
56428;DHT22;42331;53.578;9.760;2022-08-18T17:58:57;21.30;99.90
56428;DHT22;42331;53.578;9.760;2022-08-18T18:01:33;21.30;99.90
56428;DHT22;42331;53.578;9.760;2022-08-18T18:04:05;21.30;99.90
56428;DHT22;42331;53.578;9.760;2022-08-18T18:06:40;21.20;99.90
56428;DHT22;42331;53.578;9.760;2022-08-18T18:11:51;21.20;99.90
56428;DHT22;42331;53.578;9.760;2022-08-18T18:14:26;21.10;99.90
56428;DHT22;42331;53.578;9.760;2022-08-18T18:17:13;21.00;99.90
56428;DHT22;42331;53.578;9.760;2022-08-18T18:19:48;20.90;99.90
56428;DHT22;42331;53.578;9.760;2022-08-18T18:22:27;20.80;99.90
56428;DHT22;42331;53.578;9.760;2022-08-18T18:27:41;20.70;99.90
56428;DHT22;42331;53.578;9.760;2022-08-18T18:35:32;20.60;99.90
56428;DHT22;42331;53.578;9.760;2022-08-18T18:41:02;20.50;99.90
56428;DHT22;42331;53.578;9.760;2022-08-18T18:49:16;20.40;99.90
56428;DHT22;42331;53.578;9.760;2022-08-18T19:00:13;20.30;99.90
56428;DHT22;42331;53.578;9.760;2022-08-18T19:11:23;20.20;99.90
56428;DHT22;42331;53.578;9.760;2022-08-18T19:14:03;20.10;99.90
56428;DHT22;42331;53.578;9.760;2022-08-18T19:16:45;20.10;99.90
56428;DHT22;42331;53.578;9.760;2022-08-18T19:19:28;20.10;99.90
56428;DHT22;42331;53.578;9.760;2022-08-18T19:22:10;20.10;99.90
56428;DHT22;42331;53.578;9.760;2022-08-18T19:25:04;20.00;99.90
56428;DHT22;42331;53.578;9.760;2022-08-18T19:27:45;20.00;99.90
56428;DHT22;42331;53.578;9.760;2022-08-18T19:30:18;20.00;99.90
56428;DHT22;42331;53.578;9.760;2022-08-18T19:32:56;20.00;99.90
56428;DHT22;42331;53.578;9.760;2022-08-18T19:35:48;20.00;99.90
56428;DHT22;42331;53.578;9.760;2022-08-18T19:38:32;20.00;99.90
56428;DHT22;42331;53.578;9.760;2022-08-18T19:41:17;20.00;99.90
56428;DHT22;42331;53.578;9.760;2022-08-18T19:44:23;20.00;99.90
56428;DHT22;42331;53.578;9.760;2022-08-18T19:49:49;20.00;99.90
56428;DHT22;42331;53.578;9.760;2022-08-18T20:15:27;19.80;99.90
56428;DHT22;42331;53.578;9.760;2022-08-18T20:18:05;19.80;99.90
56428;DHT22;42331;53.578;9.760;2022-08-18T20:34:21;19.70;99.90
56428;DHT22;42331;53.578;9.760;2022-08-18T20:36:53;19.70;99.90
56428;DHT22;42331;53.578;9.760;2022-08-18T20:39:48;19.70;99.90
56428;DHT22;42331;53.578;9.760;2022-08-18T20:42:43;19.60;99.90
56428;DHT22;42331;53.578;9.760;2022-08-18T20:45:45;19.60;99.90
56428;DHT22;42331;53.578;9.760;2022-08-18T20:48:31;19.60;99.90
56428;DHT22;42331;53.578;9.760;2022-08-18T20:51:14;19.60;99.90
56428;DHT22;42331;53.578;9.760;2022-08-18T20:56:39;19.60;99.90
56428;DHT22;42331;53.578;9.760;2022-08-18T20:59:22;19.60;99.90
56428;DHT22;42331;53.578;9.760;2022-08-18T21:01:56;19.60;99.90
56428;DHT22;42331;53.578;9.760;2022-08-18T21:04:46;19.50;99.90
56428;DHT22;42331;53.578;9.760;2022-08-18T21:07:26;19.60;99.90
56428;DHT22;42331;53.578;9.760;2022-08-18T21:10:03;19.50;99.90
56428;DHT22;42331;53.578;9.760;2022-08-18T21:12:35;19.50;99.90
56428;DHT22;42331;53.578;9.760;2022-08-18T21:15:08;19.50;99.90
56428;DHT22;42331;53.578;9.760;2022-08-18T21:17:42;19.50;99.90
56428;DHT22;42331;53.578;9.760;2022-08-18T21:20:14;19.50;99.90
56428;DHT22;42331;53.578;9.760;2022-08-18T21:22:45;19.50;99.90
56428;DHT22;42331;53.578;9.760;2022-08-18T21:25:16;19.50;99.90
56428;DHT22;42331;53.578;9.760;2022-08-18T21:27:47;19.50;99.90
56428;DHT22;42331;53.578;9.760;2022-08-18T21:30:21;19.50;99.90
56428;DHT22;42331;53.578;9.760;2022-08-18T21:32:53;19.50;99.90
56428;DHT22;42331;53.578;9.760;2022-08-18T21:35:35;19.50;99.90
56428;DHT22;42331;53.578;9.760;2022-08-18T21:38:10;19.50;99.90
56428;DHT22;42331;53.578;9.760;2022-08-18T21:40:44;19.50;99.90
56428;DHT22;42331;53.578;9.760;2022-08-18T21:43:40;19.50;99.90
56428;DHT22;42331;53.578;9.760;2022-08-18T21:46:13;19.50;99.90
56428;DHT22;42331;53.578;9.760;2022-08-18T21:48:53;19.50;99.90
56428;DHT22;42331;53.578;9.760;2022-08-18T21:51:46;19.50;99.90
56428;DHT22;42331;53.578;9.760;2022-08-18T21:54:23;19.50;99.90
56428;DHT22;42331;53.578;9.760;2022-08-18T21:57:27;19.50;99.90
56428;DHT22;42331;53.578;9.760;2022-08-18T22:05:57;19.50;99.90
56428;DHT22;42331;53.578;9.760;2022-08-18T22:08:42;19.40;99.90
56428;DHT22;42331;53.578;9.760;2022-08-18T22:16:48;19.50;99.90
56428;DHT22;42331;53.578;9.760;2022-08-18T22:24:37;19.50;99.90
56428;DHT22;42331;53.578;9.760;2022-08-18T22:27:17;19.40;99.90
56428;DHT22;42331;53.578;9.760;2022-08-18T22:29:48;19.50;99.90
56428;DHT22;42331;53.578;9.760;2022-08-18T22:32:20;19.40;99.90
56428;DHT22;42331;53.578;9.760;2022-08-18T22:34:51;19.40;99.90
56428;DHT22;42331;53.578;9.760;2022-08-18T22:37:25;19.40;99.90
56428;DHT22;42331;53.578;9.760;2022-08-18T22:40:04;19.40;99.90
56428;DHT22;42331;53.578;9.760;2022-08-18T22:42:36;19.30;99.90
56428;DHT22;42331;53.578;9.760;2022-08-18T22:45:11;19.40;99.90
56428;DHT22;42331;53.578;9.760;2022-08-18T22:47:42;19.30;99.90
56428;DHT22;42331;53.578;9.760;2022-08-18T22:50:13;19.30;99.90
56428;DHT22;42331;53.578;9.760;2022-08-18T22:52:46;19.30;99.90
56428;DHT22;42331;53.578;9.760;2022-08-18T22:55:19;19.20;99.90
56428;DHT22;42331;53.578;9.760;2022-08-18T22:57:50;19.30;99.90
56428;DHT22;42331;53.578;9.760;2022-08-18T23:00:23;19.30;99.90
56428;DHT22;42331;53.578;9.760;2022-08-18T23:02:54;19.30;99.90
56428;DHT22;42331;53.578;9.760;2022-08-18T23:05:24;19.30;99.90
56428;DHT22;42331;53.578;9.760;2022-08-18T23:07:55;19.30;99.90
56428;DHT22;42331;53.578;9.760;2022-08-18T23:10:26;19.20;99.90
56428;DHT22;42331;53.578;9.760;2022-08-18T23:12:57;19.20;99.90
56428;DHT22;42331;53.578;9.760;2022-08-18T23:15:28;19.20;99.90
56428;DHT22;42331;53.578;9.760;2022-08-18T23:18:15;19.30;99.90
56428;DHT22;42331;53.578;9.760;2022-08-18T23:20:54;19.20;99.90
56428;DHT22;42331;53.578;9.760;2022-08-18T23:23:28;19.20;99.90
56428;DHT22;42331;53.578;9.760;2022-08-18T23:25:59;19.20;99.90
56428;DHT22;42331;53.578;9.760;2022-08-18T23:28:30;19.20;99.90
56428;DHT22;42331;53.578;9.760;2022-08-18T23:31:01;19.20;99.90
56428;DHT22;42331;53.578;9.760;2022-08-18T23:33:32;19.20;99.90
56428;DHT22;42331;53.578;9.760;2022-08-18T23:36:05;19.20;99.90
56428;DHT22;42331;53.578;9.760;2022-08-18T23:38:36;19.20;99.90
56428;DHT22;42331;53.578;9.760;2022-08-18T23:41:09;19.20;99.90
56428;DHT22;42331;53.578;9.760;2022-08-18T23:43:41;19.10;99.90
56428;DHT22;42331;53.578;9.760;2022-08-18T23:46:26;19.20;99.90
56428;DHT22;42331;53.578;9.760;2022-08-18T23:48:59;19.20;99.90
56428;DHT22;42331;53.578;9.760;2022-08-18T23:51:39;19.10;99.90
56428;DHT22;42331;53.578;9.760;2022-08-18T23:54:15;19.10;99.90
56428;DHT22;42331;53.578;9.760;2022-08-18T23:56:47;19.20;99.90
56428;DHT22;42331;53.578;9.760;2022-08-18T23:59:20;19.20;99.90
